KMZZ/MZZ METAR and TAF weather

Enter ICAO airport designator
Station Type Date Time Source
KMZZ METAR 2021/05/11 16:15 UTC NOAA

KMZZ 111615Z AUTO 02012G16KT 10SM SCT044 10/02 A3032 RMK AO2 T00980017


Station Type Date Time Source
KMZZ Decoded METAR 2021/05/11 16:15 UTC NOAA

Station name not available
May 11, 2021 - 12:15 PM EDT / 2021.05.11 1615 UTC
Wind: from the NNE (020 degrees) at 14 MPH (12 KT) gusting to 18 MPH (16 KT):0
Visibility: 10 mile(s):0
Sky conditions: partly cloudy
Temperature: 49.6 F (9.8 C)
Dew Point: 35.1 F (1.7 C)
Relative Humidity: 57%
Pressure (altimeter): 30.32 in. Hg (1026 hPa)
ob: KMZZ 111615Z AUTO 02012G16KT 10SM SCT044 10/02 A3032 RMK AO2 T00980017
cycle: 16

Station Type Date Time Source
KMZZ TAF UTC NOAA

Error!

Example: see airport list